createdAt,value
2018-06-27T00:02:07.845Z,16.08
2018-06-27T00:04:37.037Z,16.03
2018-06-27T00:07:06.465Z,15.89
2018-06-27T00:09:35.613Z,15.81
2018-06-27T00:12:04.817Z,15.76
2018-06-27T00:14:34.876Z,15.70
2018-06-27T00:17:04.046Z,15.64
2018-06-27T00:19:33.230Z,15.58
2018-06-27T00:22:02.617Z,15.54
2018-06-27T00:24:31.785Z,15.52
2018-06-27T00:27:03.179Z,15.54
2018-06-27T00:29:32.335Z,15.52
2018-06-27T00:32:01.433Z,15.56
2018-06-27T00:34:30.929Z,15.48
2018-06-27T00:37:00.141Z,15.44
2018-06-27T00:39:29.537Z,15.43
2018-06-27T00:41:59.470Z,15.41
2018-06-27T00:44:28.628Z,15.42
2018-06-27T00:46:57.817Z,15.38
2018-06-27T00:49:27.020Z,15.43
2018-06-27T00:51:56.149Z,15.41
2018-06-27T00:54:25.336Z,15.36
2018-06-27T00:56:55.251Z,15.30
2018-06-27T00:59:24.392Z,15.24
2018-06-27T01:01:53.516Z,15.19
2018-06-27T01:04:22.685Z,15.17
2018-06-27T01:06:51.829Z,15.17
2018-06-27T01:09:21.028Z,15.25
2018-06-27T01:11:50.441Z,15.12
2018-06-27T01:14:19.637Z,15.08
2018-06-27T01:16:48.740Z,14.91
2018-06-27T01:19:18.105Z,14.79
2018-06-27T01:21:48.507Z,14.76
2018-06-27T01:24:17.776Z,14.68
2018-06-27T01:26:47.177Z,14.59
2018-06-27T01:29:16.313Z,14.57
2018-06-27T01:31:45.461Z,14.58
2018-06-27T01:34:14.648Z,14.61
2018-06-27T01:36:43.805Z,14.61
2018-06-27T01:39:12.955Z,14.53
2018-06-27T01:41:42.224Z,14.53
2018-06-27T01:44:11.372Z,14.47
2018-06-27T01:46:40.645Z,14.45
2018-06-27T01:49:09.808Z,14.41
2018-06-27T01:51:38.946Z,14.35
2018-06-27T01:54:08.048Z,14.27
2018-06-27T01:56:37.460Z,14.24
2018-06-27T01:59:06.897Z,14.20
2018-06-27T02:01:36.038Z,14.14
2018-06-27T02:04:05.525Z,14.10
2018-06-27T02:06:34.624Z,14.06
2018-06-27T02:09:03.815Z,14.05
2018-06-27T02:11:33.196Z,14.05
2018-06-27T02:14:02.333Z,14.05
2018-06-27T02:16:31.456Z,13.99
2018-06-27T02:19:01.014Z,14.07
2018-06-27T02:21:30.198Z,14.06
2018-06-27T02:23:59.397Z,14.02
2018-06-27T02:26:28.657Z,14.01
2018-06-27T02:28:57.828Z,13.94
2018-06-27T02:31:27.025Z,13.84
2018-06-27T02:33:56.456Z,13.82
2018-06-27T02:36:25.757Z,13.77
2018-06-27T02:38:55.197Z,13.78
2018-06-27T02:41:24.629Z,13.78
2018-06-27T02:43:53.740Z,13.70
2018-06-27T02:46:22.909Z,13.71
2018-06-27T02:48:52.541Z,13.71
2018-06-27T02:51:21.697Z,13.67
2018-06-27T02:53:50.807Z,13.69
2018-06-27T02:56:19.945Z,13.65
2018-06-27T02:58:49.088Z,13.63
2018-06-27T03:01:18.577Z,13.59
2018-06-27T03:03:47.662Z,13.57
2018-06-27T03:06:16.846Z,13.55
2018-06-27T03:08:45.979Z,13.60
2018-06-27T03:11:15.225Z,13.54
2018-06-27T03:13:44.449Z,13.53
2018-06-27T03:16:13.576Z,13.49
2018-06-27T03:18:52.152Z,13.45
2018-06-27T03:21:21.477Z,13.48
2018-06-27T03:23:50.800Z,13.46
2018-06-27T03:26:20.390Z,13.44
2018-06-27T03:28:49.499Z,13.45
2018-06-27T03:31:18.960Z,13.50
2018-06-27T03:33:48.298Z,13.51
2018-06-27T03:36:17.477Z,13.49
2018-06-27T03:38:46.621Z,13.52
2018-06-27T03:41:16.116Z,13.52
2018-06-27T03:43:45.321Z,13.52
2018-06-27T03:46:14.485Z,13.56
2018-06-27T03:48:44.242Z,13.54
2018-06-27T03:51:13.424Z,13.47
2018-06-27T03:53:46.737Z,13.51
2018-06-27T03:56:15.867Z,13.54
2018-06-27T03:58:45.016Z,13.54
2018-06-27T04:01:14.870Z,13.52
2018-06-27T04:03:44.037Z,13.57
2018-06-27T04:06:13.172Z,13.62
2018-06-27T04:08:42.392Z,13.69
2018-06-27T04:11:11.528Z,13.73
2018-06-27T04:13:40.909Z,13.85
2018-06-27T04:16:10.465Z,13.99
2018-06-27T04:18:39.581Z,14.03
2018-06-27T04:21:08.763Z,14.05
2018-06-27T04:23:38.316Z,14.11
2018-06-27T04:26:07.521Z,14.24
2018-06-27T04:28:36.612Z,14.34
2018-06-27T04:31:05.833Z,14.37
2018-06-27T04:33:34.976Z,14.46
2018-06-27T04:36:04.129Z,14.60
2018-06-27T04:38:33.626Z,14.67
2018-06-27T04:41:02.764Z,14.73
2018-06-27T04:43:31.932Z,14.87
2018-06-27T04:46:01.206Z,15.03
2018-06-27T04:48:30.353Z,15.15
2018-06-27T04:50:59.629Z,15.30
2018-06-27T04:53:29.064Z,15.39
2018-06-27T04:55:58.200Z,15.50
2018-06-27T04:58:27.320Z,15.58
2018-06-27T05:00:56.713Z,15.61
2018-06-27T05:03:26.200Z,15.70
2018-06-27T05:05:55.313Z,15.85
2018-06-27T05:08:25.025Z,15.93
2018-06-27T05:10:54.216Z,16.06
2018-06-27T05:13:23.348Z,16.17
2018-06-27T05:15:52.736Z,16.25
2018-06-27T05:18:21.942Z,16.35
2018-06-27T05:20:51.058Z,16.48
2018-06-27T05:23:20.457Z,16.62
2018-06-27T05:25:49.572Z,16.76
2018-06-27T05:28:18.816Z,16.71
2018-06-27T05:30:48.077Z,16.84
2018-06-27T05:33:17.242Z,16.99
2018-06-27T05:35:46.448Z,17.01
2018-06-27T05:38:15.605Z,16.90
2018-06-27T05:40:44.832Z,16.96
2018-06-27T05:43:13.987Z,16.98
2018-06-27T05:45:43.420Z,16.83
2018-06-27T05:48:12.520Z,16.96
2018-06-27T05:50:41.712Z,17.09
2018-06-27T05:53:11.277Z,17.24
2018-06-27T05:55:40.521Z,17.41
2018-06-27T05:58:09.729Z,17.29
2018-06-27T06:00:39.036Z,17.45
2018-06-27T06:03:08.141Z,17.56
2018-06-27T06:05:37.637Z,17.55
2018-06-27T06:08:07.128Z,17.63
2018-06-27T06:10:36.317Z,17.83
2018-06-27T06:13:05.558Z,17.84
2018-06-27T06:15:34.964Z,18.04
2018-06-27T06:18:04.176Z,18.13
2018-06-27T06:20:33.350Z,18.52
2018-06-27T06:23:02.553Z,18.47
2018-06-27T06:25:32.425Z,18.18
2018-06-27T06:28:02.484Z,18.46
2018-06-27T06:30:31.632Z,18.70
2018-06-27T06:33:00.780Z,19.29
2018-06-27T06:35:30.338Z,19.61
2018-06-27T06:37:59.528Z,19.51
2018-06-27T06:40:28.684Z,19.12
2018-06-27T06:42:58.156Z,19.39
2018-06-27T06:45:27.294Z,19.41
2018-06-27T06:47:56.597Z,19.70
2018-06-27T06:50:26.138Z,20.08
2018-06-27T06:52:56.234Z,19.78
2018-06-27T06:55:25.381Z,19.63
2018-06-27T06:57:54.591Z,19.58
2018-06-27T07:00:23.924Z,19.79
2018-06-27T07:02:53.076Z,19.83
2018-06-27T07:05:22.390Z,20.29
2018-06-27T07:07:51.836Z,20.28
2018-06-27T07:10:20.972Z,20.56
2018-06-27T07:12:50.229Z,20.36
2018-06-27T07:15:19.692Z,20.70
2018-06-27T07:17:49.096Z,20.82
2018-06-27T07:20:18.177Z,21.21
2018-06-27T07:22:47.609Z,21.80
2018-06-27T07:25:16.825Z,22.37
2018-06-27T07:27:45.970Z,22.75
2018-06-27T07:30:15.705Z,23.03
2018-06-27T07:32:44.880Z,22.58
2018-06-27T07:35:14.026Z,22.80
2018-06-27T07:37:43.465Z,24.15
2018-06-27T07:40:12.601Z,25.86
2018-06-27T07:42:42.760Z,27.29
2018-06-27T07:45:12.460Z,27.15
2018-06-27T07:47:42.438Z,29.87
2018-06-27T07:50:12.569Z,31.61
2018-06-27T07:52:41.693Z,32.83
2018-06-27T07:55:10.913Z,29.85
2018-06-27T07:57:40.598Z,30.19
2018-06-27T08:00:10.953Z,27.51
2018-06-27T08:02:40.989Z,28.63
2018-06-27T08:05:11.255Z,28.92
2018-06-27T08:07:40.413Z,27.45
2018-06-27T08:10:10.445Z,30.50
2018-06-27T08:12:41.253Z,31.60
2018-06-27T08:15:10.681Z,31.69
2018-06-27T08:17:41.576Z,34.30
2018-06-27T08:20:10.617Z,36.75
2018-06-27T08:22:40.062Z,36.74
2018-06-27T08:25:10.058Z,37.07
2018-06-27T08:27:40.823Z,37.65
2018-06-27T08:30:12.308Z,38.24
2018-06-27T08:32:42.362Z,37.05
2018-06-27T08:35:12.125Z,34.86
2018-06-27T08:37:42.415Z,34.28
2018-06-27T08:40:12.593Z,30.12
2018-06-27T08:42:43.134Z,33.20
2018-06-27T08:45:16.374Z,35.60
2018-06-27T08:47:48.889Z,34.51
2018-06-27T08:50:20.798Z,33.21
2018-06-27T08:52:50.953Z,32.60
2018-06-27T08:55:20.306Z,33.97
2018-06-27T08:57:49.613Z,30.94
2018-06-27T09:00:19.234Z,29.36
2018-06-27T09:02:48.625Z,31.37
2018-06-27T09:05:19.347Z,29.95
2018-06-27T09:07:49.877Z,29.86
2018-06-27T09:10:21.129Z,31.98
2018-06-27T09:12:53.079Z,32.79
2018-06-27T09:15:23.375Z,35.01
2018-06-27T09:17:53.176Z,29.86
2018-06-27T09:20:24.938Z,30.47
2018-06-27T09:22:57.486Z,30.94
2018-06-27T09:25:27.443Z,33.51
2018-06-27T09:29:26.213Z,30.46
2018-06-27T09:31:56.865Z,31.19
2018-06-27T09:34:28.265Z,32.00
2018-06-27T09:36:57.849Z,31.07
2018-06-27T09:39:27.937Z,29.97
2018-06-27T09:41:59.230Z,32.01
2018-06-27T09:44:29.699Z,33.29
2018-06-27T09:47:00.555Z,31.28
2018-06-27T09:49:33.456Z,30.21
2018-06-27T09:52:04.601Z,30.61
2018-06-27T09:54:38.788Z,27.72
2018-06-27T09:57:09.667Z,28.74
2018-06-27T09:59:39.802Z,30.14
2018-06-27T10:02:13.883Z,30.28
2018-06-27T10:04:44.541Z,32.39
2018-06-27T10:07:13.925Z,33.40
2018-06-27T10:09:44.277Z,31.59
2018-06-27T10:12:16.604Z,28.57
2018-06-27T10:14:47.953Z,29.93
2018-06-27T10:17:20.594Z,30.53
2018-06-27T10:19:50.230Z,29.51
2018-06-27T10:22:20.267Z,29.00
2018-06-27T10:24:49.567Z,31.80
2018-06-27T10:27:18.760Z,30.54
2018-06-27T10:29:48.145Z,30.71
2018-06-27T10:32:23.754Z,31.74
2018-06-27T10:34:54.174Z,32.97
2018-06-27T10:37:25.277Z,31.87
2018-06-27T10:39:54.705Z,33.33
2018-06-27T10:42:24.583Z,29.78
2018-06-27T10:44:56.382Z,28.20
2018-06-27T10:47:27.647Z,28.89
2018-06-27T10:49:58.541Z,29.59
2018-06-27T10:52:30.352Z,31.38
2018-06-27T10:55:00.261Z,33.44
2018-06-27T10:57:29.875Z,29.99
2018-06-27T10:59:59.515Z,30.29
2018-06-27T11:02:30.167Z,31.44
2018-06-27T11:05:00.795Z,32.48
2018-06-27T11:07:30.293Z,31.85
2018-06-27T11:09:59.659Z,31.97
2018-06-27T11:12:29.129Z,30.34
2018-06-27T11:14:58.368Z,31.82
2018-06-27T11:17:28.879Z,31.39
2018-06-27T11:19:59.540Z,29.64
2018-06-27T11:22:29.052Z,30.60
2018-06-27T11:24:58.772Z,32.32
2018-06-27T11:27:28.877Z,32.54
2018-06-27T11:29:58.731Z,32.93
2018-06-27T11:32:29.730Z,32.03
2018-06-27T11:34:59.878Z,32.41
2018-06-27T11:37:31.938Z,29.88
2018-06-27T11:46:00.285Z,29.86
2018-06-27T11:48:46.956Z,29.56
2018-06-27T11:51:42.722Z,30.60
2018-06-27T11:57:14.103Z,29.57
2018-06-27T11:59:44.699Z,30.39
2018-06-27T12:02:27.603Z,29.43
2018-06-27T12:04:59.046Z,29.43
2018-06-27T12:07:29.711Z,29.08
2018-06-27T12:13:23.021Z,31.42
2018-06-27T12:15:58.073Z,31.17
2018-06-27T12:18:37.675Z,31.89
2018-06-27T12:24:06.796Z,30.09
2018-06-27T12:29:24.240Z,29.95
2018-06-27T12:32:03.085Z,30.78
2018-06-27T12:34:46.458Z,30.35
2018-06-27T12:37:17.722Z,28.71
2018-06-27T12:39:50.032Z,30.53
2018-06-27T12:42:30.303Z,32.36
2018-06-27T12:45:02.972Z,29.79
2018-06-27T12:47:33.070Z,29.47
2018-06-27T12:50:05.142Z,30.82
2018-06-27T12:52:35.457Z,31.20
2018-06-27T12:55:08.442Z,30.75
2018-06-27T12:57:38.633Z,31.76
2018-06-27T13:00:09.572Z,32.09
2018-06-27T13:02:38.862Z,30.78
2018-06-27T13:05:10.176Z,32.19
2018-06-27T13:07:40.409Z,31.46
2018-06-27T13:10:10.713Z,32.51
2018-06-27T13:12:39.869Z,32.45
2018-06-27T13:15:09.832Z,31.14
2018-06-27T13:17:41.265Z,30.32
2018-06-27T13:21:40.957Z,30.50
2018-06-27T13:24:10.172Z,29.60
2018-06-27T13:26:39.713Z,29.17
2018-06-27T13:29:09.898Z,28.06
2018-06-27T13:31:42.794Z,30.30
2018-06-27T13:34:12.505Z,31.66
2018-06-27T13:36:42.734Z,31.31
2018-06-27T13:39:12.058Z,29.93
2018-06-27T13:41:41.506Z,31.05
2018-06-27T13:44:11.381Z,31.13
2018-06-27T13:46:40.665Z,30.39
2018-06-27T13:49:10.355Z,29.12
2018-06-27T13:51:41.891Z,28.86
2018-06-27T13:54:11.137Z,27.52
2018-06-27T13:56:40.992Z,27.95
2018-06-27T13:59:10.208Z,28.07
2018-06-27T14:01:39.399Z,30.30
2018-06-27T14:04:10.068Z,29.69
2018-06-27T14:06:39.287Z,29.18
2018-06-27T14:09:10.197Z,28.60
2018-06-27T14:11:40.308Z,28.61
2018-06-27T14:14:09.497Z,28.62
2018-06-27T14:16:39.215Z,28.55
2018-06-27T14:19:09.287Z,29.65
2018-06-27T14:31:20.097Z,28.61
2018-06-27T14:33:49.373Z,28.97
2018-06-27T14:36:25.344Z,29.58
2018-06-27T14:38:55.058Z,30.22
2018-06-27T14:41:24.577Z,29.08
2018-06-27T14:43:54.197Z,29.43
2018-06-27T14:46:23.934Z,29.74
2018-06-27T14:48:53.172Z,29.59
2018-06-27T14:51:22.673Z,29.30
2018-06-27T14:53:51.901Z,29.11
2018-06-27T14:56:21.101Z,29.37
2018-06-27T14:58:50.601Z,28.58
2018-06-27T15:01:20.154Z,29.68
2018-06-27T15:03:50.829Z,30.87
2018-06-27T15:06:20.750Z,31.00
2018-06-27T15:08:49.929Z,28.70
2018-06-27T15:11:19.773Z,29.09
2018-06-27T15:13:48.969Z,29.03
2018-06-27T15:16:18.963Z,29.84
2018-06-27T15:18:48.461Z,29.13
2018-06-27T15:21:19.169Z,29.90
2018-06-27T15:23:50.257Z,30.01
2018-06-27T15:26:22.736Z,29.96
2018-06-27T15:28:51.909Z,29.89
2018-06-27T15:31:21.194Z,29.84
2018-06-27T15:33:50.382Z,28.54
2018-06-27T15:36:21.731Z,28.37
2018-06-27T15:38:52.523Z,27.95
2018-06-27T15:41:21.923Z,27.00
2018-06-27T15:43:56.186Z,27.47
2018-06-27T15:46:26.774Z,28.13
2018-06-27T15:48:56.456Z,26.90
2018-06-27T15:51:28.669Z,26.78
2018-06-27T15:53:58.860Z,26.79
2018-06-27T15:56:28.064Z,26.78
2018-06-27T15:58:57.366Z,26.46
2018-06-27T16:01:27.385Z,26.20
2018-06-27T16:03:56.605Z,25.77
2018-06-27T16:06:26.989Z,25.79
2018-06-27T16:08:56.209Z,25.46
2018-06-27T16:11:25.385Z,25.51
2018-06-27T16:13:54.549Z,25.69
2018-06-27T16:16:25.462Z,26.07
2018-06-27T16:18:54.650Z,26.34
2018-06-27T16:21:24.749Z,26.75
2018-06-27T16:23:54.052Z,26.59
2018-06-27T16:26:23.333Z,26.64
2018-06-27T16:28:52.737Z,26.27
2018-06-27T16:31:22.825Z,26.09
2018-06-27T16:33:52.005Z,25.58
2018-06-27T16:36:21.970Z,25.24
2018-06-27T16:38:52.201Z,25.37
2018-06-27T16:41:21.901Z,25.23
2018-06-27T16:43:51.340Z,25.54
2018-06-27T16:46:20.763Z,25.24
2018-06-27T16:48:49.909Z,25.32
2018-06-27T16:51:19.555Z,25.31
2018-06-27T16:53:48.818Z,25.44
2018-06-27T16:56:17.833Z,25.39
2018-06-27T16:58:47.134Z,25.63
2018-06-27T17:01:16.552Z,25.52
2018-06-27T17:03:45.562Z,25.61
2018-06-27T17:06:14.795Z,25.48
2018-06-27T17:08:43.941Z,25.42
2018-06-27T17:11:13.049Z,25.60
2018-06-27T17:13:42.297Z,25.34
2018-06-27T17:16:13.318Z,25.24
2018-06-27T17:18:42.640Z,25.03
2018-06-27T17:21:12.353Z,25.02
2018-06-27T17:23:41.468Z,25.05
2018-06-27T17:26:10.546Z,24.89
2018-06-27T17:28:39.925Z,24.78
2018-06-27T17:31:09.692Z,24.93
2018-06-27T17:33:38.889Z,24.87
2018-06-27T17:36:09.059Z,25.13
2018-06-27T17:38:40.458Z,24.98
2018-06-27T17:41:09.991Z,24.95
2018-06-27T17:43:41.417Z,24.87
2018-06-27T17:46:10.613Z,24.78
2018-06-27T17:48:40.725Z,24.69
2018-06-27T17:51:10.234Z,24.73
2018-06-27T17:53:39.523Z,24.74
2018-06-27T17:56:10.381Z,24.64
2018-06-27T17:58:39.693Z,24.68
2018-06-27T18:01:09.085Z,24.66
2018-06-27T18:03:42.781Z,24.80
2018-06-27T18:06:12.977Z,24.77
2018-06-27T18:08:42.176Z,24.68
2018-06-27T18:11:12.836Z,24.54
2018-06-27T18:13:43.275Z,24.67
2018-06-27T18:16:13.249Z,24.76
2018-06-27T18:18:43.646Z,24.72
2018-06-27T18:21:12.845Z,24.77
2018-06-27T18:23:42.442Z,24.53
2018-06-27T18:26:11.989Z,24.44
2018-06-27T18:28:41.100Z,24.41
2018-06-27T18:31:13.372Z,24.42
2018-06-27T18:33:43.449Z,24.32
2018-06-27T18:36:12.569Z,24.32
2018-06-27T18:38:41.750Z,24.22
2018-06-27T18:41:10.881Z,24.15
2018-06-27T18:43:40.645Z,24.07
2018-06-27T18:46:09.878Z,23.84
2018-06-27T18:48:39.462Z,23.70
2018-06-27T18:51:08.685Z,23.65
2018-06-27T18:53:37.797Z,23.60
2018-06-27T18:56:10.030Z,23.64
2018-06-27T18:58:39.261Z,23.62
2018-06-27T19:01:08.454Z,23.46
2018-06-27T19:03:37.869Z,23.37
2018-06-27T19:06:07.957Z,23.37
2018-06-27T19:08:37.169Z,23.32
2018-06-27T19:11:06.393Z,23.24
2018-06-27T19:13:36.149Z,23.24
2018-06-27T19:16:05.517Z,23.10
2018-06-27T19:18:35.733Z,23.02
2018-06-27T19:21:04.941Z,23.08
2018-06-27T19:23:36.861Z,22.97
2018-06-27T19:26:06.217Z,22.79
2018-06-27T19:28:35.418Z,22.88
2018-06-27T19:31:04.604Z,22.79
2018-06-27T19:33:34.013Z,22.68
2018-06-27T19:36:03.253Z,22.63
2018-06-27T19:38:33.577Z,22.49
2018-06-27T19:41:03.139Z,22.39
2018-06-27T19:43:32.219Z,22.21
2018-06-27T19:46:01.376Z,21.93
2018-06-27T19:48:30.714Z,21.71
2018-06-27T19:50:59.890Z,21.59
2018-06-27T19:53:29.241Z,21.35
2018-06-27T19:55:59.118Z,21.19
2018-06-27T19:58:28.325Z,21.09
2018-06-27T20:00:59.033Z,20.95
2018-06-27T20:03:29.053Z,20.84
2018-06-27T20:05:58.437Z,20.70
2018-06-27T20:08:28.065Z,20.56
2018-06-27T20:10:57.161Z,20.46
2018-06-27T20:13:26.334Z,20.37
2018-06-27T20:15:55.834Z,20.25
2018-06-27T20:18:24.973Z,20.07
2018-06-27T20:20:54.162Z,19.98
2018-06-27T20:23:24.013Z,19.86
2018-06-27T20:25:53.277Z,19.79
2018-06-27T20:28:23.305Z,19.64
2018-06-27T20:30:52.428Z,19.54
2018-06-27T20:33:21.549Z,19.38
2018-06-27T20:35:50.969Z,19.27
2018-06-27T20:38:20.437Z,19.18
2018-06-27T20:40:49.890Z,19.09
2018-06-27T20:43:19.301Z,19.03
2018-06-27T20:45:48.685Z,18.92
2018-06-27T20:48:17.792Z,18.89
2018-06-27T20:50:47.422Z,18.79
2018-06-27T20:53:16.701Z,18.78
2018-06-27T20:55:46.001Z,18.76
2018-06-27T20:58:15.203Z,18.63
2018-06-27T21:00:44.403Z,18.56
2018-06-27T21:03:13.633Z,18.51
2018-06-27T21:05:42.898Z,18.46
2018-06-27T21:08:12.205Z,18.43
2018-06-27T21:10:42.148Z,18.42
2018-06-27T21:13:11.741Z,18.36
2018-06-27T21:15:41.125Z,18.32
2018-06-27T21:18:11.149Z,18.28
2018-06-27T21:20:40.545Z,18.26
2018-06-27T21:23:09.657Z,18.13
2018-06-27T21:25:38.841Z,18.07
2018-06-27T21:28:08.045Z,18.02
2018-06-27T21:30:37.750Z,17.97
2018-06-27T21:33:09.394Z,17.87
2018-06-27T21:35:38.577Z,17.84
2018-06-27T21:38:07.718Z,17.69
2018-06-27T21:40:38.424Z,17.66
2018-06-27T21:43:09.277Z,17.61
2018-06-27T21:45:38.478Z,17.62
2018-06-27T21:48:07.618Z,17.60
2018-06-27T21:50:36.813Z,17.52
2018-06-27T21:53:07.055Z,17.48
2018-06-27T21:55:36.305Z,17.40
2018-06-27T21:58:05.917Z,17.42
2018-06-27T22:00:35.125Z,17.32
2018-06-27T22:03:04.328Z,17.31
2018-06-27T22:05:33.673Z,17.40
2018-06-27T22:08:04.064Z,17.36
2018-06-27T22:10:33.197Z,17.22
2018-06-27T22:13:02.308Z,17.08
2018-06-27T22:15:31.904Z,17.05
2018-06-27T22:18:01.164Z,17.08
2018-06-27T22:20:30.365Z,17.06
2018-06-27T22:22:59.771Z,17.09
2018-06-27T22:25:29.010Z,17.09
2018-06-27T22:27:58.105Z,17.02
2018-06-27T22:30:28.149Z,16.92
2018-06-27T22:32:57.313Z,16.94
2018-06-27T22:35:26.413Z,16.90
2018-06-27T22:37:55.645Z,16.77
2018-06-27T22:40:24.808Z,16.68
2018-06-27T22:42:54.037Z,16.63
2018-06-27T22:45:23.197Z,16.49
2018-06-27T22:47:52.345Z,16.47
2018-06-27T22:50:21.453Z,16.48
2018-06-27T22:52:50.814Z,16.46
2018-06-27T22:55:20.109Z,16.47
2018-06-27T22:57:50.329Z,16.46
2018-06-27T23:00:25.198Z,16.39
2018-06-27T23:02:57.124Z,16.38
2018-06-27T23:05:26.329Z,16.43
2018-06-27T23:07:55.465Z,16.42
2018-06-27T23:10:24.865Z,16.35
2018-06-27T23:12:54.265Z,16.30
2018-06-27T23:15:26.993Z,16.21
2018-06-27T23:17:56.284Z,16.15
2018-06-27T23:20:25.439Z,15.85
2018-06-27T23:22:58.010Z,15.82
2018-06-27T23:25:27.177Z,15.71
2018-06-27T23:27:57.397Z,15.67
2018-06-27T23:30:28.689Z,15.58
2018-06-27T23:32:58.033Z,15.51
2018-06-27T23:35:27.848Z,15.47
2018-06-27T23:37:57.265Z,15.47
2018-06-27T23:40:26.389Z,15.49
2018-06-27T23:42:55.472Z,15.44
2018-06-27T23:45:25.308Z,15.37
2018-06-27T23:47:55.598Z,15.39
2018-06-27T23:50:25.662Z,15.38
2018-06-27T23:52:55.013Z,15.31
2018-06-27T23:55:24.221Z,15.23
2018-06-27T23:57:54.077Z,15.10
